sensor_id;sensor_type;location;lat;lon;timestamp;pressure;altitude;pressure_sealevel;temperature;humidity
13314;BME280;6725;48.112;11.604;2023-07-13T00:01:15;93477.16;;;18.58;100.00
13314;BME280;6725;48.112;11.604;2023-07-13T00:03:40;93472.88;;;18.57;100.00
13314;BME280;6725;48.112;11.604;2023-07-13T00:06:07;93465.13;;;18.61;100.00
13314;BME280;6725;48.112;11.604;2023-07-13T00:08:33;93455.56;;;18.67;100.00
13314;BME280;6725;48.112;11.604;2023-07-13T00:11:02;93443.50;;;18.70;100.00
13314;BME280;6725;48.112;11.604;2023-07-13T00:13:29;93441.22;;;18.74;100.00
13314;BME280;6725;48.112;11.604;2023-07-13T00:15:56;93439.19;;;18.75;100.00
13314;BME280;6725;48.112;11.604;2023-07-13T00:18:22;93428.91;;;18.75;100.00
13314;BME280;6725;48.112;11.604;2023-07-13T00:20:47;93429.16;;;18.83;100.00
13314;BME280;6725;48.112;11.604;2023-07-13T00:23:13;93436.19;;;18.84;100.00
13314;BME280;6725;48.112;11.604;2023-07-13T00:25:42;93449.53;;;18.80;100.00
13314;BME280;6725;48.112;11.604;2023-07-13T00:28:07;93441.47;;;18.82;100.00
13314;BME280;6725;48.112;11.604;2023-07-13T00:30:33;93446.75;;;18.80;100.00
13314;BME280;6725;48.112;11.604;2023-07-13T00:32:58;93450.03;;;18.78;100.00
13314;BME280;6725;48.112;11.604;2023-07-13T00:35:26;93468.88;;;18.80;100.00
13314;BME280;6725;48.112;11.604;2023-07-13T00:37:52;93468.88;;;18.80;100.00
13314;BME280;6725;48.112;11.604;2023-07-13T00:40:17;93468.88;;;18.85;100.00
13314;BME280;6725;48.112;11.604;2023-07-13T00:42:43;93473.16;;;18.81;100.00
13314;BME280;6725;48.112;11.604;2023-07-13T00:47:37;93480.94;;;18.77;100.00
13314;BME280;6725;48.112;11.604;2023-07-13T00:50:04;93483.94;;;18.79;100.00
13314;BME280;6725;48.112;11.604;2023-07-13T00:52:31;93492.78;;;18.77;100.00
13314;BME280;6725;48.112;11.604;2023-07-13T00:54:57;93491.50;;;18.73;100.00
13314;BME280;6725;48.112;11.604;2023-07-13T00:57:23;93493.00;;;18.74;100.00
13314;BME280;6725;48.112;11.604;2023-07-13T00:59:52;93496.03;;;18.76;100.00
13314;BME280;6725;48.112;11.604;2023-07-13T01:02:19;93499.06;;;18.78;100.00
13314;BME280;6725;48.112;11.604;2023-07-13T01:04:46;93497.06;;;18.84;100.00
13314;BME280;6725;48.112;11.604;2023-07-13T01:07:12;93482.94;;;18.82;100.00
13314;BME280;6725;48.112;11.604;2023-07-13T01:09:38;93485.50;;;18.80;100.00
13314;BME280;6725;48.112;11.604;2023-07-13T01:12:03;93476.19;;;18.77;100.00
13314;BME280;6725;48.112;11.604;2023-07-13T01:14:29;93471.38;;;18.78;100.00
13314;BME280;6725;48.112;11.604;2023-07-13T01:16:54;93465.84;;;18.78;100.00
13314;BME280;6725;48.112;11.604;2023-07-13T01:22:21;93473.41;;;18.72;100.00
13314;BME280;6725;48.112;11.604;2023-07-13T01:24:51;93472.88;;;18.68;100.00
13314;BME280;6725;48.112;11.604;2023-07-13T01:27:21;93457.56;;;18.67;100.00
13314;BME280;6725;48.112;11.604;2023-07-13T01:29:48;93458.81;;;18.66;100.00
13314;BME280;6725;48.112;11.604;2023-07-13T01:32:20;93448.75;;;18.63;100.00
13314;BME280;6725;48.112;11.604;2023-07-13T01:34:47;93444.72;;;18.64;100.00
13314;BME280;6725;48.112;11.604;2023-07-13T01:37:12;93446.00;;;18.63;100.00
13314;BME280;6725;48.112;11.604;2023-07-13T01:39:37;93459.06;;;18.62;100.00
13314;BME280;6725;48.112;11.604;2023-07-13T01:42:03;93442.72;;;18.59;100.00
13314;BME280;6725;48.112;11.604;2023-07-13T01:44:28;93429.16;;;18.61;100.00
13314;BME280;6725;48.112;11.604;2023-07-13T01:46:54;93431.66;;;18.59;100.00
13314;BME280;6725;48.112;11.604;2023-07-13T01:49:19;93445.75;;;18.61;100.00
13314;BME280;6725;48.112;11.604;2023-07-13T01:51:45;93444.50;;;18.62;100.00
13314;BME280;6725;48.112;11.604;2023-07-13T01:54:10;93449.75;;;18.60;100.00
13314;BME280;6725;48.112;11.604;2023-07-13T01:56:36;93446.50;;;18.61;100.00
13314;BME280;6725;48.112;11.604;2023-07-13T01:59:01;93447.75;;;18.66;100.00
13314;BME280;6725;48.112;11.604;2023-07-13T02:01:26;93454.06;;;18.72;100.00
13314;BME280;6725;48.112;11.604;2023-07-13T02:03:52;93452.28;;;18.69;100.00
13314;BME280;6725;48.112;11.604;2023-07-13T02:06:17;93468.13;;;18.68;100.00
13314;BME280;6725;48.112;11.604;2023-07-13T02:08:42;93461.81;;;18.68;100.00
13314;BME280;6725;48.112;11.604;2023-07-13T02:11:08;93473.66;;;18.68;100.00
13314;BME280;6725;48.112;11.604;2023-07-13T02:13:34;93462.34;;;18.72;100.00
13314;BME280;6725;48.112;11.604;2023-07-13T02:15:59;93463.34;;;18.69;100.00
13314;BME280;6725;48.112;11.604;2023-07-13T02:18:25;93462.09;;;18.64;100.00
13314;BME280;6725;48.112;11.604;2023-07-13T02:20:50;93466.84;;;18.64;100.00
13314;BME280;6725;48.112;11.604;2023-07-13T02:23:16;93456.56;;;18.64;100.00
13314;BME280;6725;48.112;11.604;2023-07-13T02:25:41;93461.31;;;18.64;100.00
13314;BME280;6725;48.112;11.604;2023-07-13T02:28:07;93463.84;;;18.62;100.00
13314;BME280;6725;48.112;11.604;2023-07-13T02:30:33;93446.25;;;18.65;100.00
13314;BME280;6725;48.112;11.604;2023-07-13T02:32:58;93433.16;;;18.71;100.00
13314;BME280;6725;48.112;11.604;2023-07-13T02:35:24;93426.63;;;18.74;100.00
13314;BME280;6725;48.112;11.604;2023-07-13T02:37:49;93418.59;;;18.76;100.00
13314;BME280;6725;48.112;11.604;2023-07-13T02:40:15;93412.03;;;18.79;100.00
13314;BME280;6725;48.112;11.604;2023-07-13T02:42:41;93411.03;;;18.82;100.00
13314;BME280;6725;48.112;11.604;2023-07-13T02:45:07;93413.81;;;18.82;100.00
13314;BME280;6725;48.112;11.604;2023-07-13T02:47:34;93406.25;;;18.82;100.00
13314;BME280;6725;48.112;11.604;2023-07-13T02:49:59;93413.06;;;18.81;100.00
13314;BME280;6725;48.112;11.604;2023-07-13T02:52:25;93412.56;;;18.83;100.00
13314;BME280;6725;48.112;11.604;2023-07-13T02:54:50;93402.50;;;18.80;100.00
13314;BME280;6725;48.112;11.604;2023-07-13T02:57:16;93385.66;;;18.78;100.00
13314;BME280;6725;48.112;11.604;2023-07-13T02:59:41;93376.09;;;18.73;100.00
13314;BME280;6725;48.112;11.604;2023-07-13T03:02:07;93372.81;;;18.75;100.00
13314;BME280;6725;48.112;11.604;2023-07-13T03:04:32;93350.19;;;18.71;100.00
13314;BME280;6725;48.112;11.604;2023-07-13T03:06:57;93346.19;;;18.72;100.00
13314;BME280;6725;48.112;11.604;2023-07-13T03:09:24;93329.09;;;18.68;100.00
13314;BME280;6725;48.112;11.604;2023-07-13T03:11:53;93320.56;;;18.66;100.00
13314;BME280;6725;48.112;11.604;2023-07-13T03:14:18;93318.56;;;18.50;100.00
13314;BME280;6725;48.112;11.604;2023-07-13T03:16:44;93316.31;;;18.37;100.00
13314;BME280;6725;48.112;11.604;2023-07-13T03:19:09;93317.81;;;18.27;100.00
13314;BME280;6725;48.112;11.604;2023-07-13T03:21:35;93318.81;;;18.19;100.00
13314;BME280;6725;48.112;11.604;2023-07-13T03:24:00;93326.59;;;18.15;100.00
13314;BME280;6725;48.112;11.604;2023-07-13T03:26:25;93335.13;;;18.06;100.00
13314;BME280;6725;48.112;11.604;2023-07-13T03:28:51;93330.34;;;18.06;100.00
13314;BME280;6725;48.112;11.604;2023-07-13T03:31:19;93325.31;;;18.05;100.00
13314;BME280;6725;48.112;11.604;2023-07-13T03:33:45;93322.56;;;17.94;100.00
13314;BME280;6725;48.112;11.604;2023-07-13T03:36:17;93323.31;;;17.83;100.00
13314;BME280;6725;48.112;11.604;2023-07-13T03:38:54;93334.34;;;17.78;100.00
13314;BME280;6725;48.112;11.604;2023-07-13T03:41:21;93350.91;;;17.72;100.00
13314;BME280;6725;48.112;11.604;2023-07-13T03:43:47;93358.91;;;17.70;100.00
13314;BME280;6725;48.112;11.604;2023-07-13T03:46:13;93349.38;;;17.66;100.00
13314;BME280;6725;48.112;11.604;2023-07-13T03:48:40;93348.34;;;17.58;100.00
13314;BME280;6725;48.112;11.604;2023-07-13T03:51:08;93349.38;;;17.60;100.00
13314;BME280;6725;48.112;11.604;2023-07-13T03:53:34;93337.06;;;17.61;100.00
13314;BME280;6725;48.112;11.604;2023-07-13T03:55:59;93339.56;;;17.65;100.00
13314;BME280;6725;48.112;11.604;2023-07-13T03:58:29;93331.78;;;17.63;100.00
13314;BME280;6725;48.112;11.604;2023-07-13T04:00:56;93320.00;;;17.63;100.00
13314;BME280;6725;48.112;11.604;2023-07-13T04:03:23;93310.97;;;17.62;100.00
13314;BME280;6725;48.112;11.604;2023-07-13T04:05:48;93298.41;;;17.61;100.00
13314;BME280;6725;48.112;11.604;2023-07-13T04:08:14;93288.63;;;17.60;100.00
13314;BME280;6725;48.112;11.604;2023-07-13T04:10:39;93283.84;;;17.61;100.00
13314;BME280;6725;48.112;11.604;2023-07-13T04:13:05;93262.75;;;17.58;100.00
13314;BME280;6725;48.112;11.604;2023-07-13T04:15:31;93254.75;;;17.60;100.00
13314;BME280;6725;48.112;11.604;2023-07-13T04:17:57;93253.47;;;17.61;100.00
13314;BME280;6725;48.112;11.604;2023-07-13T04:20:24;93239.69;;;17.61;100.00
13314;BME280;6725;48.112;11.604;2023-07-13T04:22:49;93223.88;;;17.56;100.00
13314;BME280;6725;48.112;11.604;2023-07-13T04:25:15;93210.31;;;17.58;100.00
13314;BME280;6725;48.112;11.604;2023-07-13T04:27:40;93202.03;;;17.58;100.00
13314;BME280;6725;48.112;11.604;2023-07-13T04:30:06;93188.22;;;17.63;100.00
13314;BME280;6725;48.112;11.604;2023-07-13T04:32:32;93168.66;;;17.67;100.00
13314;BME280;6725;48.112;11.604;2023-07-13T04:34:58;93160.88;;;17.65;100.00
13314;BME280;6725;48.112;11.604;2023-07-13T04:37:25;93166.63;;;17.62;100.00
13314;BME280;6725;48.112;11.604;2023-07-13T04:39:50;93163.38;;;17.69;100.00
13314;BME280;6725;48.112;11.604;2023-07-13T04:42:15;93165.16;;;17.66;100.00
13314;BME280;6725;48.112;11.604;2023-07-13T04:44:41;93170.16;;;17.68;100.00
13314;BME280;6725;48.112;11.604;2023-07-13T04:47:07;93158.13;;;17.65;100.00
13314;BME280;6725;48.112;11.604;2023-07-13T04:49:32;93149.56;;;17.69;100.00
13314;BME280;6725;48.112;11.604;2023-07-13T04:51:58;93155.59;;;17.67;100.00
13314;BME280;6725;48.112;11.604;2023-07-13T04:54:23;93150.59;;;17.66;100.00
13314;BME280;6725;48.112;11.604;2023-07-13T04:56:48;93145.81;;;17.72;100.00
13314;BME280;6725;48.112;11.604;2023-07-13T04:59:14;93140.56;;;17.74;100.00
13314;BME280;6725;48.112;11.604;2023-07-13T05:01:39;93151.34;;;17.72;100.00
13314;BME280;6725;48.112;11.604;2023-07-13T05:04:06;93152.59;;;17.76;100.00
13314;BME280;6725;48.112;11.604;2023-07-13T05:06:31;93164.63;;;17.84;100.00
13314;BME280;6725;48.112;11.604;2023-07-13T05:08:57;93164.63;;;17.79;100.00
13314;BME280;6725;48.112;11.604;2023-07-13T05:11:23;93178.69;;;17.81;100.00
13314;BME280;6725;48.112;11.604;2023-07-13T05:13:49;93153.09;;;17.80;100.00
13314;BME280;6725;48.112;11.604;2023-07-13T05:16:14;93157.34;;;17.87;100.00
13314;BME280;6725;48.112;11.604;2023-07-13T05:18:40;93153.06;;;17.91;100.00
13314;BME280;6725;48.112;11.604;2023-07-13T05:21:07;93166.88;;;17.97;100.00
13314;BME280;6725;48.112;11.604;2023-07-13T05:23:34;93167.88;;;17.99;100.00
13314;BME280;6725;48.112;11.604;2023-07-13T05:26:00;93177.69;;;18.00;100.00
13314;BME280;6725;48.112;11.604;2023-07-13T05:28:26;93185.97;;;18.06;100.00
13314;BME280;6725;48.112;11.604;2023-07-13T05:30:52;93186.19;;;18.02;100.00
13314;BME280;6725;48.112;11.604;2023-07-13T05:33:19;93194.97;;;18.01;100.00
13314;BME280;6725;48.112;11.604;2023-07-13T05:35:45;93174.38;;;18.02;100.00
13314;BME280;6725;48.112;11.604;2023-07-13T05:38:10;93168.63;;;18.05;100.00
13314;BME280;6725;48.112;11.604;2023-07-13T05:40:36;93165.59;;;18.09;100.00
13314;BME280;6725;48.112;11.604;2023-07-13T05:43:01;93161.09;;;18.11;100.00
13314;BME280;6725;48.112;11.604;2023-07-13T05:45:26;93155.28;;;18.15;100.00
13314;BME280;6725;48.112;11.604;2023-07-13T05:47:52;93160.28;;;18.22;100.00
13314;BME280;6725;48.112;11.604;2023-07-13T05:50:17;93158.53;;;18.19;100.00
13314;BME280;6725;48.112;11.604;2023-07-13T05:52:43;93155.00;;;18.18;100.00
13314;BME280;6725;48.112;11.604;2023-07-13T05:55:08;93169.06;;;18.26;100.00
13314;BME280;6725;48.112;11.604;2023-07-13T05:57:34;93161.75;;;18.34;100.00
13314;BME280;6725;48.112;11.604;2023-07-13T05:59:59;93165.78;;;18.44;100.00
13314;BME280;6725;48.112;11.604;2023-07-13T06:02:24;93177.81;;;18.52;100.00
13314;BME280;6725;48.112;11.604;2023-07-13T06:04:51;93178.72;;;18.71;100.00
13314;BME280;6725;48.112;11.604;2023-07-13T06:07:17;93188.25;;;18.81;100.00
13314;BME280;6725;48.112;11.604;2023-07-13T06:09:42;93216.16;;;18.83;100.00
13314;BME280;6725;48.112;11.604;2023-07-13T06:12:07;93236.50;;;18.91;100.00
13314;BME280;6725;48.112;11.604;2023-07-13T06:14:33;93267.69;;;18.86;100.00
13314;BME280;6725;48.112;11.604;2023-07-13T06:16:58;93301.66;;;18.86;100.00
13314;BME280;6725;48.112;11.604;2023-07-13T06:19:23;93339.09;;;18.93;100.00
13314;BME280;6725;48.112;11.604;2023-07-13T06:21:49;93356.16;;;19.08;100.00
13314;BME280;6725;48.112;11.604;2023-07-13T06:24:14;93407.00;;;19.05;100.00
13314;BME280;6725;48.112;11.604;2023-07-13T06:26:39;93424.56;;;19.24;100.00
13314;BME280;6725;48.112;11.604;2023-07-13T06:29:05;93432.84;;;19.46;100.00
13314;BME280;6725;48.112;11.604;2023-07-13T06:31:30;93459.25;;;19.47;100.00
13314;BME280;6725;48.112;11.604;2023-07-13T06:33:56;93500.00;;;19.58;100.00
13314;BME280;6725;48.112;11.604;2023-07-13T06:36:21;93519.63;;;19.76;100.00
13314;BME280;6725;48.112;11.604;2023-07-13T06:38:46;93547.03;;;19.85;100.00
13314;BME280;6725;48.112;11.604;2023-07-13T06:41:12;93595.91;;;19.83;100.00
13314;BME280;6725;48.112;11.604;2023-07-13T06:43:37;93645.56;;;19.86;100.00
13314;BME280;6725;48.112;11.604;2023-07-13T06:46:03;93688.88;;;19.78;100.00
13314;BME280;6725;48.112;11.604;2023-07-13T06:48:28;93724.91;;;19.84;100.00
13314;BME280;6725;48.112;11.604;2023-07-13T06:50:54;93764.94;;;19.77;100.00
13314;BME280;6725;48.112;11.604;2023-07-13T06:53:20;93825.88;;;19.66;100.00
13314;BME280;6725;48.112;11.604;2023-07-13T06:55:46;93841.50;;;19.69;100.00
13314;BME280;6725;48.112;11.604;2023-07-13T06:58:12;93870.69;;;19.70;100.00
13314;BME280;6725;48.112;11.604;2023-07-13T07:00:38;93875.50;;;19.70;100.00
13314;BME280;6725;48.112;11.604;2023-07-13T07:03:05;93893.38;;;19.74;100.00
13314;BME280;6725;48.112;11.604;2023-07-13T07:05:30;93898.69;;;19.78;100.00
13314;BME280;6725;48.112;11.604;2023-07-13T07:07:56;93907.25;;;19.80;100.00
13314;BME280;6725;48.112;11.604;2023-07-13T07:10:21;93920.41;;;19.90;100.00
13314;BME280;6725;48.112;11.604;2023-07-13T07:12:47;93911.88;;;20.05;100.00
13314;BME280;6725;48.112;11.604;2023-07-13T07:15:12;93942.41;;;20.10;100.00
13314;BME280;6725;48.112;11.604;2023-07-13T07:17:38;93968.16;;;20.27;100.00
13314;BME280;6725;48.112;11.604;2023-07-13T07:20:04;93983.59;;;20.56;100.00
13314;BME280;6725;48.112;11.604;2023-07-13T07:22:30;94046.41;;;20.53;100.00
13314;BME280;6725;48.112;11.604;2023-07-13T07:24:56;94132.81;;;20.35;100.00
13314;BME280;6725;48.112;11.604;2023-07-13T07:27:22;94185.75;;;20.26;100.00
13314;BME280;6725;48.112;11.604;2023-07-13T07:29:48;94266.31;;;20.17;100.00
13314;BME280;6725;48.112;11.604;2023-07-13T07:32:13;94351.19;;;20.09;100.00
13314;BME280;6725;48.112;11.604;2023-07-13T07:34:38;94406.28;;;20.02;100.00
13314;BME280;6725;48.112;11.604;2023-07-13T07:37:04;94432.38;;;19.90;100.00
13314;BME280;6725;48.112;11.604;2023-07-13T07:39:29;94439.66;;;19.87;100.00
13314;BME280;6725;48.112;11.604;2023-07-13T07:41:55;94445.75;;;19.91;100.00
13314;BME280;6725;48.112;11.604;2023-07-13T07:44:20;94445.03;;;19.96;100.00
13314;BME280;6725;48.112;11.604;2023-07-13T07:46:46;94459.25;;;20.04;100.00
13314;BME280;6725;48.112;11.604;2023-07-13T07:49:11;94473.03;;;19.98;100.00
13314;BME280;6725;48.112;11.604;2023-07-13T07:51:37;94480.09;;;19.99;100.00
13314;BME280;6725;48.112;11.604;2023-07-13T07:54:03;94492.66;;;19.95;100.00
13314;BME280;6725;48.112;11.604;2023-07-13T07:56:28;94492.25;;;19.82;100.00
13314;BME280;6725;48.112;11.604;2023-07-13T07:58:54;94487.47;;;19.82;100.00
13314;BME280;6725;48.112;11.604;2023-07-13T08:01:19;94480.19;;;19.85;100.00
13314;BME280;6725;48.112;11.604;2023-07-13T08:03:44;94482.97;;;19.85;100.00
13314;BME280;6725;48.112;11.604;2023-07-13T08:06:10;94483.03;;;19.90;100.00
13314;BME280;6725;48.112;11.604;2023-07-13T08:08:35;94478.44;;;19.87;100.00
13314;BME280;6725;48.112;11.604;2023-07-13T08:11:05;94502.56;;;19.81;100.00
13314;BME280;6725;48.112;11.604;2023-07-13T08:13:30;94497.00;;;19.81;100.00
13314;BME280;6725;48.112;11.604;2023-07-13T08:15:56;94487.47;;;19.82;100.00
13314;BME280;6725;48.112;11.604;2023-07-13T08:18:21;94507.94;;;19.70;100.00
13314;BME280;6725;48.112;11.604;2023-07-13T08:20:46;94509.50;;;19.71;100.00
13314;BME280;6725;48.112;11.604;2023-07-13T08:23:12;94530.53;;;19.63;100.00
13314;BME280;6725;48.112;11.604;2023-07-13T08:25:37;94536.06;;;19.63;100.00
13314;BME280;6725;48.112;11.604;2023-07-13T08:28:03;94529.56;;;19.66;100.00
13314;BME280;6725;48.112;11.604;2023-07-13T08:30:29;94556.16;;;19.58;100.00
13314;BME280;6725;48.112;11.604;2023-07-13T08:32:55;94578.13;;;19.62;100.00
13314;BME280;6725;48.112;11.604;2023-07-13T08:35:20;94594.13;;;19.72;100.00
13314;BME280;6725;48.112;11.604;2023-07-13T08:37:45;94613.13;;;19.79;100.00
13314;BME280;6725;48.112;11.604;2023-07-13T08:40:11;94618.38;;;19.77;100.00
13314;BME280;6725;48.112;11.604;2023-07-13T08:45:22;94646.09;;;19.77;100.00
13314;BME280;6725;48.112;11.604;2023-07-13T08:48:02;94643.63;;;19.79;100.00
13314;BME280;6725;48.112;11.604;2023-07-13T08:50:32;94637.69;;;19.86;100.00
13314;BME280;6725;48.112;11.604;2023-07-13T08:53:01;94650.50;;;19.84;100.00
13314;BME280;6725;48.112;11.604;2023-07-13T08:55:30;94655.84;;;19.87;100.00
13314;BME280;6725;48.112;11.604;2023-07-13T08:58:25;94668.44;;;19.88;100.00
13314;BME280;6725;48.112;11.604;2023-07-13T09:01:17;94672.34;;;19.96;100.00
13314;BME280;6725;48.112;11.604;2023-07-13T09:06:16;94677.75;;;20.20;100.00
13314;BME280;6725;48.112;11.604;2023-07-13T09:11:36;94712.84;;;20.37;100.00
13314;BME280;6725;48.112;11.604;2023-07-13T09:16:42;94779.44;;;20.57;100.00
13314;BME280;6725;48.112;11.604;2023-07-13T09:19:13;94808.88;;;20.69;100.00
13314;BME280;6725;48.112;11.604;2023-07-13T09:21:44;94834.72;;;20.75;100.00
13314;BME280;6725;48.112;11.604;2023-07-13T09:24:28;94847.22;;;20.85;100.00
13314;BME280;6725;48.112;11.604;2023-07-13T09:26:56;94863.59;;;20.98;100.00
13314;BME280;6725;48.112;11.604;2023-07-13T09:29:28;94850.63;;;21.09;100.00
13314;BME280;6725;48.112;11.604;2023-07-13T09:31:57;94859.09;;;21.20;100.00
13314;BME280;6725;48.112;11.604;2023-07-13T09:34:24;94842.38;;;21.35;100.00
13314;BME280;6725;48.112;11.604;2023-07-13T09:36:49;94843.28;;;21.46;100.00
13314;BME280;6725;48.112;11.604;2023-07-13T09:39:25;94843.69;;;21.59;100.00
13314;BME280;6725;48.112;11.604;2023-07-13T09:42:07;94844.53;;;21.65;100.00
13314;BME280;6725;48.112;11.604;2023-07-13T09:44:50;94848.16;;;21.71;100.00
13314;BME280;6725;48.112;11.604;2023-07-13T09:47:22;94847.72;;;21.78;100.00
13314;BME280;6725;48.112;11.604;2023-07-13T09:49:59;94848.59;;;21.70;100.00
13314;BME280;6725;48.112;11.604;2023-07-13T09:52:26;94856.69;;;21.68;100.00
13314;BME280;6725;48.112;11.604;2023-07-13T09:54:54;94857.88;;;21.61;100.00
13314;BME280;6725;48.112;11.604;2023-07-13T09:57:26;94850.00;;;21.80;100.00
13314;BME280;6725;48.112;11.604;2023-07-13T09:59:53;94840.44;;;22.06;100.00
13314;BME280;6725;48.112;11.604;2023-07-13T10:05:01;94824.69;;;22.55;100.00
13314;BME280;6725;48.112;11.604;2023-07-13T10:07:29;94833.34;;;22.99;100.00
13314;BME280;6725;48.112;11.604;2023-07-13T10:10:00;94867.28;;;23.34;100.00
13314;BME280;6725;48.112;11.604;2023-07-13T10:12:29;94908.59;;;23.88;100.00
13314;BME280;6725;48.112;11.604;2023-07-13T10:14:58;94976.84;;;24.46;100.00
13314;BME280;6725;48.112;11.604;2023-07-13T10:17:34;95080.91;;;25.21;100.00
13314;BME280;6725;48.112;11.604;2023-07-13T10:20:02;95275.22;;;25.37;100.00
13314;BME280;6725;48.112;11.604;2023-07-13T10:22:39;95439.91;;;26.08;100.00
13314;BME280;6725;48.112;11.604;2023-07-13T10:25:20;95525.03;;;26.33;100.00
13314;BME280;6725;48.112;11.604;2023-07-13T10:27:50;95540.38;;;27.34;100.00
13314;BME280;6725;48.112;11.604;2023-07-13T10:30:29;95561.22;;;28.33;100.00
13314;BME280;6725;48.112;11.604;2023-07-13T10:33:02;95576.84;;;28.17;100.00
13314;BME280;6725;48.112;11.604;2023-07-13T10:35:29;95577.06;;;28.36;100.00
13314;BME280;6725;48.112;11.604;2023-07-13T10:38:07;95592.38;;;28.46;100.00
13314;BME280;6725;48.112;11.604;2023-07-13T10:40:45;95598.56;;;28.00;100.00
13314;BME280;6725;48.112;11.604;2023-07-13T10:43:20;95592.44;;;28.12;100.00
13314;BME280;6725;48.112;11.604;2023-07-13T10:45:48;95599.25;;;28.61;100.00
13314;BME280;6725;48.112;11.604;2023-07-13T10:48:15;95601.66;;;28.98;78.18
13314;BME280;6725;48.112;11.604;2023-07-13T10:50:44;95607.13;;;29.31;79.95
13314;BME280;6725;48.112;11.604;2023-07-13T10:53:22;95599.25;;;30.23;69.20
13314;BME280;6725;48.112;11.604;2023-07-13T10:58:24;95609.78;;;29.12;67.78
13314;BME280;6725;48.112;11.604;2023-07-13T11:03:33;95609.28;;;29.14;63.61
13314;BME280;6725;48.112;11.604;2023-07-13T11:06:12;95611.41;;;28.86;68.01
13314;BME280;6725;48.112;11.604;2023-07-13T11:11:33;95613.00;;;28.76;75.17
13314;BME280;6725;48.112;11.604;2023-07-13T11:14:01;95605.00;;;29.02;79.71
13314;BME280;6725;48.112;11.604;2023-07-13T11:24:48;95609.25;;;28.46;87.64
13314;BME280;6725;48.112;11.604;2023-07-13T11:30:37;95600.41;;;30.09;74.41
13314;BME280;6725;48.112;11.604;2023-07-13T11:33:15;95605.38;;;29.98;69.64
13314;BME280;6725;48.112;11.604;2023-07-13T11:35:45;95600.69;;;29.76;75.65
13314;BME280;6725;48.112;11.604;2023-07-13T11:38:16;95598.88;;;28.92;82.05
13314;BME280;6725;48.112;11.604;2023-07-13T11:40:44;95595.28;;;28.92;87.81
13314;BME280;6725;48.112;11.604;2023-07-13T11:43:13;95578.84;;;29.07;83.69
13314;BME280;6725;48.112;11.604;2023-07-13T11:45:39;95576.66;;;29.35;79.52
13314;BME280;6725;48.112;11.604;2023-07-13T11:48:04;95576.44;;;29.27;77.06
13314;BME280;6725;48.112;11.604;2023-07-13T11:50:30;95574.19;;;29.61;73.38
13314;BME280;6725;48.112;11.604;2023-07-13T11:52:58;95576.69;;;29.64;73.67
13314;BME280;6725;48.112;11.604;2023-07-13T11:55:24;95573.38;;;29.66;74.71
13314;BME280;6725;48.112;11.604;2023-07-13T11:58:00;95569.38;;;28.42;76.13
13314;BME280;6725;48.112;11.604;2023-07-13T12:00:29;95555.19;;;27.95;84.25
13314;BME280;6725;48.112;11.604;2023-07-13T12:02:59;95556.69;;;28.07;81.80
13314;BME280;6725;48.112;11.604;2023-07-13T12:05:26;95561.78;;;28.14;82.28
13314;BME280;6725;48.112;11.604;2023-07-13T12:07:52;95557.22;;;27.89;80.31
13314;BME280;6725;48.112;11.604;2023-07-13T12:10:27;95559.00;;;27.76;81.45
13314;BME280;6725;48.112;11.604;2023-07-13T12:13:00;95564.34;;;27.35;82.99
13314;BME280;6725;48.112;11.604;2023-07-13T12:15:43;95554.59;;;26.92;91.47
13314;BME280;6725;48.112;11.604;2023-07-13T12:18:14;95549.44;;;26.74;93.55
13314;BME280;6725;48.112;11.604;2023-07-13T12:20:40;95546.91;;;26.87;98.28
13314;BME280;6725;48.112;11.604;2023-07-13T12:23:14;95556.44;;;27.39;96.53
13314;BME280;6725;48.112;11.604;2023-07-13T12:25:46;95548.53;;;27.87;91.90
13314;BME280;6725;48.112;11.604;2023-07-13T12:31:05;95548.53;;;27.49;85.30
13314;BME280;6725;48.112;11.604;2023-07-13T12:33:32;95546.28;;;27.47;86.42
13314;BME280;6725;48.112;11.604;2023-07-13T12:36:00;95542.09;;;27.04;94.23
13314;BME280;6725;48.112;11.604;2023-07-13T12:38:28;95543.47;;;27.36;92.85
13314;BME280;6725;48.112;11.604;2023-07-13T12:40:53;95538.84;;;27.33;93.59
13314;BME280;6725;48.112;11.604;2023-07-13T12:43:21;95537.78;;;27.14;92.75
13314;BME280;6725;48.112;11.604;2023-07-13T12:46:03;95550.25;;;27.02;92.82
13314;BME280;6725;48.112;11.604;2023-07-13T12:48:38;95533.75;;;27.26;95.39
13314;BME280;6725;48.112;11.604;2023-07-13T12:51:04;95530.19;;;27.48;95.73
13314;BME280;6725;48.112;11.604;2023-07-13T12:53:30;95526.09;;;27.54;92.41
13314;BME280;6725;48.112;11.604;2023-07-13T12:56:02;95527.88;;;27.41;96.14
13314;BME280;6725;48.112;11.604;2023-07-13T13:00:58;95531.69;;;27.38;94.94
13314;BME280;6725;48.112;11.604;2023-07-13T13:03:32;95530.69;;;27.35;95.42
13314;BME280;6725;48.112;11.604;2023-07-13T13:08:32;95521.16;;;26.89;100.00
13314;BME280;6725;48.112;11.604;2023-07-13T13:10:58;95516.19;;;26.51;100.00
13314;BME280;6725;48.112;11.604;2023-07-13T13:13:24;95512.69;;;26.61;95.74
13314;BME280;6725;48.112;11.604;2023-07-13T13:15:50;95512.09;;;26.46;93.65
13314;BME280;6725;48.112;11.604;2023-07-13T13:18:20;95514.16;;;26.51;98.18
13314;BME280;6725;48.112;11.604;2023-07-13T13:20:47;95510.31;;;26.49;100.00
13314;BME280;6725;48.112;11.604;2023-07-13T13:23:15;95518.91;;;26.23;100.00
13314;BME280;6725;48.112;11.604;2023-07-13T13:25:44;95522.22;;;26.27;100.00
13314;BME280;6725;48.112;11.604;2023-07-13T13:28:19;95511.09;;;26.49;100.00
13314;BME280;6725;48.112;11.604;2023-07-13T13:30:45;95508.44;;;26.24;100.00
13314;BME280;6725;48.112;11.604;2023-07-13T13:33:13;95519.41;;;26.27;100.00
13314;BME280;6725;48.112;11.604;2023-07-13T13:35:40;95510.97;;;26.16;100.00
13314;BME280;6725;48.112;11.604;2023-07-13T13:38:17;95511.50;;;26.20;100.00
13314;BME280;6725;48.112;11.604;2023-07-13T13:40:45;95509.53;;;26.43;96.14